NORTHEAST SUFFOLK  -  Special Weather Statement Special Weather Statement        NORTHERN NASSAU  -  Special Weather Statement Special Weather Statement        NORTHWEST SUFFOLK  -  Special Weather Statement Special Weather Statement        SOUTHEAST SUFFOLK  -  Special Weather Statement Special Weather Statement        SOUTHERN NASSAU  -  Special Weather Statement Special Weather Statement        SOUTHWEST SUFFOLK  -  Special Weather Statement Special Weather Statement      

Active alerts

Northern Nassau
  Details for Northern Nassau Special Weather Statement
Southern Nassau
  Details for Southern Nassau Special Weather Statement
Northwest Suffolk
  Details for Northwest Suffolk Special Weather Statement
Southwest Suffolk
  Details for Southwest Suffolk Special Weather Statement
Northeast Suffolk
  Details for Northeast Suffolk Special Weather Statement
Southeast Suffolk
  Details for Southeast Suffolk Special Weather Statement


WXM80 ListenWXM80 Stop

You find our weather info also at:

UK Metoffice

WeatherCloud

Weather Underground

Northeastern Weather Network

AWEKAS

Citizen Weather Observer Program (CWOP)

HAMweather, WeatherForYou, PWS Weather


Weather Underground History page Text

Daily Summary for April 29, 2017 Units:  English    Metric   Both
« Previous Day
Next Day »
Daily Weekly Monthly Yearly Custom
  High: Low: Average:
Temperature: 85.6 °F 63.4 °F 73.5 °F
Dew Point: 68.8 °F 50.9 °F 61.6 °F
Humidity: 89 % 49 % 67 %
Wind Speed: 10.1 mph 0.0 mph 3 mph
Wind Gust: 17.3 mph - -
Wind:- - WSW
Pressure: 30.07 in 29.87 in -
Precipitation: 0.00 in    
Historical Graphs
 
 
Tabular Data for April 29, 2017
Time Temperature Dew Point Pressure Wind Wind Speed Wind Gust Humidity Rainfall Rate (Hourly)
00:04 65.8 °F 51.1 °F 29.99 in WSW 1.3 mph 4.0 mph 59 % 0.00 in
00:09 65.8 °F 51.1 °F 30.00 in WSW 0.6 mph 2.3 mph 59 % 0.00 in
00:14 66.1 °F 50.9 °F 30.00 in West 3.5 mph 8.1 mph 58 % 0.00 in
00:19 66.5 °F 51.3 °F 30.00 in WSW 2.9 mph 5.8 mph 58 % 0.00 in
00:29 66.9 °F 51.6 °F 30.00 in SSW 1.3 mph 6.0 mph 58 % 0.00 in
00:34 67.1 °F 51.4 °F 30.00 in SW 2.3 mph 3.5 mph 57 % 0.00 in
00:39 67.2 °F 51.9 °F 30.00 in SW 1.5 mph 2.3 mph 58 % 0.00 in
00:42 67.2 °F 51.9 °F 30.00 in SW 2.6 mph 5.8 mph 58 % 0.00 in
00:47 67.2 °F 51.4 °F 30.00 in SSW 2.8 mph 6.9 mph 57 % 0.00 in
00:52 67.3 °F 52.5 °F 30.01 in SW 2.6 mph 6.0 mph 59 % 0.00 in
00:57 67.3 °F 53.4 °F 30.00 in SW 2.4 mph 4.6 mph 61 % 0.00 in
01:02 67.4 °F 53.9 °F 30.00 in WSW 3.2 mph 6.9 mph 62 % 0.00 in
01:07 67.5 °F 54.5 °F 30.01 in WSW 3.0 mph 5.8 mph 63 % 0.00 in
01:12 67.6 °F 55.0 °F 30.01 in WSW 1.2 mph 5.8 mph 64 % 0.00 in
01:18 67.6 °F 55.0 °F 30.00 in SW 1.2 mph 3.5 mph 64 % 0.00 in
01:23 67.5 °F 55.3 °F 30.00 in SW 0.9 mph 3.5 mph 65 % 0.00 in
01:28 67.5 °F 55.3 °F 29.99 in SW 1.2 mph 2.3 mph 65 % 0.00 in
01:33 67.5 °F 55.7 °F 29.99 in SSW 1.2 mph 3.5 mph 66 % 0.00 in
01:38 67.5 °F 56.2 °F 30.00 in SSW 2.1 mph 4.6 mph 67 % 0.00 in
01:43 67.5 °F 56.2 °F 30.00 in West 1.9 mph 3.5 mph 67 % 0.00 in
01:48 67.5 °F 56.6 °F 30.00 in SW 1.1 mph 4.0 mph 68 % 0.00 in
01:53 67.6 °F 56.7 °F 29.99 in WSW 0.8 mph 2.3 mph 68 % 0.00 in
01:58 67.7 °F 57.2 °F 29.99 in WSW 2.2 mph 3.5 mph 69 % 0.00 in
02:03 67.8 °F 57.7 °F 29.99 in WSW 1.1 mph 3.5 mph 70 % 0.00 in
02:09 68.0 °F 57.8 °F 29.99 in WSW 0.6 mph 2.3 mph 70 % 0.00 in
02:14 68.1 °F 57.9 °F 29.98 in WSW 1.0 mph 2.0 mph 70 % 0.00 in
02:19 68.2 °F 58.4 °F 29.98 in WSW 1.3 mph 3.5 mph 71 % 0.00 in
02:24 68.3 °F 58.5 °F 29.98 in WSW 1.2 mph 2.3 mph 71 % 0.00 in
02:29 68.4 °F 58.6 °F 29.98 in WSW 1.5 mph 3.5 mph 71 % 0.00 in
02:34 68.5 °F 59.1 °F 29.99 in WSW 0.9 mph 3.5 mph 72 % 0.00 in
02:39 68.5 °F 59.1 °F 29.99 in SW 1.9 mph 4.6 mph 72 % 0.00 in
02:44 68.5 °F 59.1 °F 30.00 in SW 2.0 mph 3.5 mph 72 % 0.00 in
02:49 68.5 °F 59.1 °F 30.00 in WSW 0.4 mph 3.5 mph 72 % 0.00 in
02:54 68.5 °F 59.1 °F 29.99 in SW 0.4 mph 1.2 mph 72 % 0.00 in
02:59 68.5 °F 59.1 °F 29.98 in SW 0.6 mph 2.3 mph 72 % 0.00 in
03:04 68.5 °F 59.1 °F 29.97 in Calm     72 % 0.00 in
03:09 68.5 °F 59.5 °F 29.96 in Calm     73 % 0.00 in
03:15 68.4 °F 60.2 °F 29.97 in SW 0.5 mph 2.3 mph 75 % 0.00 in
03:20 68.3 °F 59.7 °F 29.98 in SW 1.2 mph 3.5 mph 74 % 0.00 in
03:25 68.1 °F 59.5 °F 29.98 in Calm   1.2 mph 74 % 0.00 in
03:30 67.9 °F 59.7 °F 29.98 in SW 0.1 mph 1.2 mph 75 % 0.00 in
03:35 67.7 °F 59.5 °F 29.98 in SW 0.8 mph 2.3 mph 75 % 0.00 in
03:40 67.6 °F 59.8 °F 29.99 in SW 1.3 mph 2.3 mph 76 % 0.00 in
03:45 67.4 °F 59.6 °F 29.99 in Calm   2.3 mph 76 % 0.00 in
03:50 67.2 °F 59.7 °F 29.98 in SW 0.1 mph 1.2 mph 77 % 0.00 in
03:55 67.1 °F 59.6 °F 29.98 in Calm     77 % 0.00 in
04:00 67.1 °F 59.6 °F 29.98 in SW 1.7 mph 3.5 mph 77 % 0.00 in
04:03 67.0 °F 59.9 °F 29.98 in SW 0.7 mph 2.3 mph 78 % 0.00 in
04:08 67.0 °F 60.3 °F 29.98 in SSW 1.7 mph 3.5 mph 79 % 0.00 in
04:13 66.9 °F 60.2 °F 29.98 in SSW 1.4 mph 3.5 mph 79 % 0.00 in
04:18 66.8 °F 60.1 °F 29.98 in SW 2.2 mph 3.5 mph 79 % 0.00 in
04:23 66.7 °F 60.0 °F 29.98 in SW 1.1 mph 3.0 mph 79 % 0.00 in
04:28 66.7 °F 60.3 °F 29.98 in SW 1.5 mph 3.5 mph 80 % 0.00 in
04:33 66.6 °F 60.2 °F 29.97 in Calm     80 % 0.00 in
04:35 66.6 °F 60.2 °F 29.96 in SW 0.1 mph 2.3 mph 80 % 0.00 in
04:40 66.6 °F 60.6 °F 29.96 in Calm   1.2 mph 81 % 0.00 in
04:46 66.6 °F 60.6 °F 29.96 in SSW 0.5 mph 1.2 mph 81 % 0.00 in
04:51 66.6 °F 60.9 °F 29.96 in SSW 1.0 mph 2.0 mph 82 % 0.00 in
04:56 66.6 °F 60.9 °F 29.96 in Calm   3.0 mph 82 % 0.00 in
05:01 66.6 °F 60.9 °F 29.95 in Calm     82 % 0.00 in
05:06 66.6 °F 60.9 °F 29.94 in Calm   1.0 mph 82 % 0.00 in
05:11 66.6 °F 60.9 °F 29.94 in Calm   1.0 mph 82 % 0.00 in
05:16 66.5 °F 61.2 °F 29.94 in Calm     83 % 0.00 in
05:21 66.3 °F 60.7 °F 29.93 in Calm     82 % 0.00 in
05:26 66.3 °F 61.0 °F 29.94 in Calm   2.0 mph 83 % 0.00 in
05:31 66.1 °F 60.8 °F 29.94 in Calm   2.0 mph 83 % 0.00 in
05:36 66.0 °F 60.7 °F 29.95 in SSW 1.0 mph 2.0 mph 83 % 0.00 in
05:41 65.8 °F 60.5 °F 29.95 in SSW 2.0 mph 4.0 mph 83 % 0.00 in
05:46 65.7 °F 60.4 °F 29.95 in SSW 1.0 mph 3.0 mph 83 % 0.00 in
05:51 65.6 °F 60.3 °F 29.94 in SSW 1.0 mph 3.0 mph 83 % 0.00 in
05:56 65.6 °F 60.6 °F 29.93 in Calm     84 % 0.00 in
06:01 65.6 °F 60.6 °F 29.92 in Calm   1.2 mph 84 % 0.00 in
06:06 65.5 °F 60.9 °F 29.91 in Calm   2.0 mph 85 % 0.00 in
06:11 65.5 °F 60.9 °F 29.92 in Calm   2.0 mph 85 % 0.00 in
06:16 65.6 °F 61.3 °F 29.94 in SSW 2.2 mph 4.6 mph 86 % 0.00 in
06:21 65.5 °F 61.2 °F 29.94 in SSW 3.0 mph 6.0 mph 86 % 0.00 in
06:26 65.4 °F 61.1 °F 29.94 in South 1.0 mph 5.0 mph 86 % 0.00 in
06:31 65.3 °F 61.3 °F 29.93 in South 1.0 mph 4.0 mph 87 % 0.00 in
06:32 65.2 °F 61.2 °F 29.93 in SSW 2.2 mph 4.0 mph 87 % 0.00 in
06:37 65.1 °F 61.1 °F 29.93 in SSW 0.4 mph 2.3 mph 87 % 0.00 in
06:42 65.0 °F 61.0 °F 29.93 in South 0.2 mph 1.2 mph 87 % 0.00 in
06:47 64.9 °F 60.9 °F 29.94 in South 0.5 mph 1.2 mph 87 % 0.00 in
06:52 64.8 °F 61.2 °F 29.94 in South 1.1 mph 3.0 mph 88 % 0.00 in
06:57 64.7 °F 61.1 °F 29.94 in WSW 2.4 mph 5.8 mph 88 % 0.00 in
07:02 64.7 °F 61.4 °F 29.94 in Calm   1.2 mph 89 % 0.00 in
07:07 64.5 °F 60.5 °F 29.95 in NNW 2.4 mph 5.8 mph 87 % 0.00 in
07:12 64.2 °F 60.2 °F 29.95 in WNW 0.1 mph 1.2 mph 87 % 0.00 in
07:17 64.1 °F 60.2 °F 29.94 in WNW 0.6 mph 2.3 mph 87 % 0.00 in
07:23 63.9 °F 60.0 °F 29.94 in NNE 1.9 mph 5.0 mph 87 % 0.00 in
07:28 63.6 °F 59.0 °F 29.94 in NNW 1.8 mph 4.6 mph 85 % 0.00 in
07:33 63.5 °F 58.9 °F 29.94 in North 0.7 mph 3.5 mph 85 % 0.00 in
07:38 63.4 °F 59.1 °F 29.94 in NW 1.2 mph 3.5 mph 86 % 0.00 in
07:43 63.4 °F 59.1 °F 29.94 in NW 0.4 mph 2.3 mph 86 % 0.00 in
07:44 63.4 °F 59.1 °F 29.93 in Calm     86 % 0.00 in
07:49 63.5 °F 59.6 °F 29.94 in Calm     87 % 0.00 in
07:54 63.8 °F 59.9 °F 29.94 in NW 0.1 mph 1.2 mph 87 % 0.00 in
07:59 64.1 °F 60.5 °F 29.94 in NW 0.4 mph 1.2 mph 88 % 0.00 in
08:04 64.4 °F 60.4 °F 29.94 in Calm   1.2 mph 87 % 0.00 in
08:09 64.5 °F 60.2 °F 29.94 in Calm     86 % 0.00 in
08:14 64.7 °F 60.4 °F 29.94 in Calm     86 % 0.00 in
08:19 64.8 °F 60.2 °F 29.94 in Calm   1.2 mph 85 % 0.00 in
08:25 65.0 °F 60.7 °F 29.94 in Calm     86 % 0.00 in
08:30 65.2 °F 61.2 °F 29.94 in Calm     87 % 0.00 in
08:35 65.4 °F 61.4 °F 29.94 in Calm   3.5 mph 87 % 0.00 in
08:40 65.7 °F 61.7 °F 29.95 in East 0.3 mph 1.2 mph 87 % 0.00 in
08:45 66.1 °F 62.4 °F 29.95 in Calm   2.3 mph 88 % 0.00 in
08:50 66.5 °F 62.8 °F 29.94 in SE 1.7 mph 3.5 mph 88 % 0.00 in
08:55 67.1 °F 63.4 °F 29.95 in SSE 0.4 mph 2.3 mph 88 % 0.00 in
09:00 67.8 °F 64.1 °F 29.96 in SSW 1.3 mph 3.5 mph 88 % 0.00 in
09:05 68.3 °F 64.6 °F 29.97 in SW 1.8 mph 4.6 mph 88 % 0.00 in
09:10 68.6 °F 64.6 °F 29.97 in SW 4.8 mph 6.9 mph 87 % 0.00 in
09:15 69.0 °F 65.0 °F 29.97 in South 0.8 mph 4.0 mph 87 % 0.00 in
09:20 69.6 °F 65.6 °F 29.97 in SSW 1.9 mph 3.5 mph 87 % 0.00 in
09:26 70.2 °F 65.8 °F 29.98 in SSW 1.0 mph 7.0 mph 86 % 0.00 in
09:31 71.0 °F 65.9 °F 29.98 in SSW 3.0 mph 12.0 mph 84 % 0.00 in
09:36 71.8 °F 66.3 °F 29.98 in SSW 5.0 mph 8.0 mph 83 % 0.00 in
09:41 72.3 °F 66.1 °F 29.98 in SSW 7.4 mph 10.4 mph 81 % 0.00 in
09:46 72.5 °F 66.0 °F 29.97 in SSW 3.5 mph 7.0 mph 80 % 0.00 in
09:51 72.6 °F 65.7 °F 29.98 in SW 5.0 mph 14.0 mph 79 % 0.00 in
09:56 72.8 °F 65.9 °F 29.98 in SW 6.0 mph 12.0 mph 79 % 0.00 in
10:01 73.0 °F 65.7 °F 29.98 in SSW 8.0 mph 10.4 mph 78 % 0.00 in
10:06 73.2 °F 65.9 °F 29.97 in SW 5.0 mph 14.0 mph 78 % 0.00 in
10:11 73.5 °F 66.2 °F 29.97 in SW 7.0 mph 12.0 mph 78 % 0.00 in
10:16 73.9 °F 66.2 °F 29.97 in SW 6.0 mph 12.0 mph 77 % 0.00 in
10:20 74.4 °F 67.1 °F 29.97 in WSW 5.4 mph 9.2 mph 78 % 0.00 in
10:25 74.8 °F 67.1 °F 29.97 in SW 6.8 mph 10.4 mph 77 % 0.00 in
10:31 75.3 °F 67.6 °F 29.97 in SW 7.0 mph 12.0 mph 77 % 0.00 in
10:36 75.9 °F 67.7 °F 29.98 in SW 5.0 mph 12.0 mph 76 % 0.00 in
10:41 76.5 °F 68.4 °F 29.98 in SW 7.0 mph 14.0 mph 76 % 0.00 in
10:46 77.3 °F 67.9 °F 29.97 in WSW 6.0 mph 15.0 mph 73 % 0.00 in
10:51 77.8 °F 68.0 °F 29.97 in West 5.4 mph 7.0 mph 72 % 0.00 in
10:56 78.1 °F 67.9 °F 29.97 in SW 5.0 mph 10.0 mph 71 % 0.00 in
11:01 78.4 °F 68.2 °F 29.96 in WNW 3.9 mph 5.8 mph 71 % 0.00 in
11:06 78.7 °F 68.1 °F 29.96 in WSW 7.5 mph 11.5 mph 70 % 0.00 in
11:11 79.1 °F 68.5 °F 29.95 in WSW 4.1 mph 9.2 mph 70 % 0.00 in
11:16 79.5 °F 68.0 °F 29.94 in SW 5.3 mph 8.1 mph 68 % 0.00 in
11:21 79.9 °F 68.8 °F 29.93 in West 4.9 mph 8.1 mph 69 % 0.00 in
11:26 80.2 °F 68.2 °F 29.92 in WSW 3.3 mph 7.0 mph 67 % 0.00 in
11:31 80.4 °F 68.0 °F 29.93 in NW 3.6 mph 5.8 mph 66 % 0.00 in
11:36 80.3 °F 67.9 °F 29.90 in WNW 1.2 mph 3.5 mph 66 % 0.00 in
11:41 80.3 °F 67.5 °F 29.91 in WNW 2.1 mph 3.5 mph 65 % 0.00 in
11:46 80.2 °F 67.8 °F 29.92 in SW 6.0 mph 9.2 mph 66 % 0.00 in
11:51 80.2 °F 67.8 °F 29.92 in WSW 2.2 mph 5.8 mph 66 % 0.00 in
11:56 80.2 °F 68.7 °F 29.93 in SSW 2.2 mph 5.0 mph 68 % 0.00 in
11:57 80.3 °F 68.3 °F 29.93 in SSW 4.6 mph 5.8 mph 67 % 0.00 in
12:03 80.3 °F 68.3 °F 29.92 in SW 3.6 mph 5.8 mph 67 % 0.00 in
12:08 80.1 °F 66.8 °F 29.92 in WSW 5.5 mph 7.0 mph 64 % 0.00 in
12:13 79.9 °F 67.1 °F 29.92 in WSW 3.6 mph 8.1 mph 65 % 0.00 in
12:18 79.9 °F 67.5 °F 29.92 in WSW 4.7 mph 8.1 mph 66 % 0.00 in
12:23 79.8 °F 67.4 °F 29.92 in WNW 1.5 mph 3.5 mph 66 % 0.00 in
12:28 79.9 °F 67.5 °F 29.92 in SW 4.0 mph 10.4 mph 66 % 0.00 in
12:33 80.0 °F 67.2 °F 29.91 in South 2.4 mph 5.8 mph 65 % 0.00 in
12:38 80.2 °F 67.4 °F 29.91 in West 0.9 mph 3.5 mph 65 % 0.00 in
12:43 80.7 °F 67.4 °F 29.90 in SW 3.5 mph 5.8 mph 64 % 0.00 in
12:48 81.4 °F 66.7 °F 29.91 in West 6.6 mph 11.5 mph 61 % 0.00 in
12:53 82.1 °F 66.8 °F 29.91 in WSW 8.3 mph 10.4 mph 60 % 0.00 in
12:58 82.6 °F 65.8 °F 29.91 in WSW 5.8 mph 11.5 mph 57 % 0.00 in
13:03 83.1 °F 67.3 °F 29.90 in WSW 2.1 mph 5.8 mph 59 % 0.00 in
13:09 83.7 °F 66.3 °F 29.89 in WNW 4.4 mph 8.1 mph 56 % 0.00 in
13:14 84.0 °F 66.1 °F 29.89 in SSW 4.4 mph 11.5 mph 55 % 0.00 in
13:19 84.3 °F 65.8 °F 29.89 in SW 3.8 mph 10.4 mph 54 % 0.00 in
13:24 84.5 °F 65.5 °F 29.88 in West 4.1 mph 6.9 mph 53 % 0.00 in
13:29 84.7 °F 65.7 °F 29.88 in WSW 2.6 mph 6.0 mph 53 % 0.00 in
13:34 84.9 °F 66.4 °F 29.88 in WSW 4.6 mph 8.1 mph 54 % 0.00 in
13:39 85.1 °F 66.6 °F 29.87 in WSW 2.2 mph 4.6 mph 54 % 0.00 in
13:44 85.3 °F 65.7 °F 29.88 in West 3.2 mph 6.0 mph 52 % 0.00 in
13:49 85.5 °F 65.9 °F 29.89 in West 7.8 mph 12.0 mph 52 % 0.00 in
13:54 85.3 °F 65.1 °F 29.89 in WSW 8.1 mph 15.0 mph 51 % 0.00 in
13:59 84.9 °F 65.3 °F 29.89 in WSW 4.4 mph 10.4 mph 52 % 0.00 in
14:05 84.8 °F 65.8 °F 29.88 in West 3.8 mph 8.1 mph 53 % 0.00 in
14:10 84.7 °F 65.1 °F 29.88 in WSW 6.3 mph 10.4 mph 52 % 0.00 in
14:15 84.7 °F 65.1 °F 29.89 in West 6.6 mph 11.5 mph 52 % 0.00 in
14:20 84.7 °F 66.2 °F 29.89 in WNW 2.1 mph 4.0 mph 54 % 0.00 in
14:25 84.7 °F 65.7 °F 29.88 in WSW 5.3 mph 9.2 mph 53 % 0.00 in
14:30 84.8 °F 65.8 °F 29.88 in WSW 5.3 mph 9.2 mph 53 % 0.00 in
14:35 85.0 °F 66.0 °F 29.88 in WSW 5.5 mph 11.5 mph 53 % 0.00 in
14:40 85.2 °F 65.0 °F 29.89 in SW 8.7 mph 16.1 mph 51 % 0.00 in
14:45 85.4 °F 65.2 °F 29.90 in WSW 5.6 mph 9.2 mph 51 % 0.00 in
14:50 85.6 °F 66.0 °F 29.90 in WSW 6.2 mph 12.7 mph 52 % 0.00 in
14:55 85.5 °F 65.3 °F 29.90 in WNW 7.7 mph 13.8 mph 51 % 0.00 in
14:56 85.5 °F 65.3 °F 29.90 in West 7.1 mph 11.5 mph 51 % 0.00 in
15:01 85.5 °F 65.3 °F 29.90 in SW 8.6 mph 12.7 mph 51 % 0.00 in
15:06 85.2 °F 65.6 °F 29.90 in WSW 6.0 mph 10.4 mph 52 % 0.00 in
15:11 85.2 °F 65.6 °F 29.90 in SW 6.5 mph 11.5 mph 52 % 0.00 in
15:16 85.3 °F 65.7 °F 29.90 in SW 7.0 mph 8.1 mph 52 % 0.00 in
15:21 85.4 °F 65.8 °F 29.90 in WSW 4.8 mph 12.7 mph 52 % 0.00 in
15:26 85.5 °F 65.3 °F 29.91 in West 10.1 mph 15.0 mph 51 % 0.00 in
15:31 85.5 °F 65.3 °F 29.90 in SW 8.8 mph 10.4 mph 51 % 0.00 in
15:37 85.6 °F 65.4 °F 29.89 in WSW 9.5 mph 17.3 mph 51 % 0.00 in
15:42 85.5 °F 64.2 °F 29.90 in WNW 8.6 mph 16.1 mph 49 % 0.00 in
15:47 85.4 °F 64.1 °F 29.90 in WNW 6.3 mph 13.8 mph 49 % 0.00 in
15:48 85.4 °F 65.2 °F 29.90 in WNW 5.9 mph 8.0 mph 51 % 0.00 in
15:54 85.5 °F 64.7 °F 29.90 in West 6.8 mph 11.5 mph 50 % 0.00 in
15:59 85.4 °F 64.6 °F 29.90 in WSW 4.9 mph 11.5 mph 50 % 0.00 in
16:04 85.2 °F 63.9 °F 29.90 in SSW 7.9 mph 17.3 mph 49 % 0.00 in
16:09 84.8 °F 63.5 °F 29.90 in West 6.6 mph 11.5 mph 49 % 0.00 in
16:14 84.7 °F 64.0 °F 29.90 in WSW 3.6 mph 9.2 mph 50 % 0.00 in
16:19 84.7 °F 63.4 °F 29.90 in WSW 5.9 mph 11.5 mph 49 % 0.00 in
16:24 84.4 °F 63.7 °F 29.90 in SW 6.9 mph 11.5 mph 50 % 0.00 in
16:29 84.3 °F 64.2 °F 29.91 in West 4.0 mph 9.2 mph 51 % 0.00 in
16:34 84.1 °F 63.5 °F 29.92 in SSW 6.6 mph 10.4 mph 50 % 0.00 in
16:39 83.9 °F 63.8 °F 29.92 in WSW 5.8 mph 9.0 mph 51 % 0.00 in
16:44 83.8 °F 63.7 °F 29.92 in WSW 4.8 mph 6.9 mph 51 % 0.00 in
16:49 83.6 °F 64.1 °F 29.92 in SW 2.6 mph 6.9 mph 52 % 0.00 in
16:54 83.4 °F 63.9 °F 29.92 in ENE 4.5 mph 9.2 mph 52 % 0.00 in
16:59 83.2 °F 64.3 °F 29.92 in WNW 5.2 mph 11.5 mph 53 % 0.00 in
17:04 83.1 °F 64.7 °F 29.92 in SW 1.7 mph 3.5 mph 54 % 0.00 in
17:10 83.2 °F 64.8 °F 29.92 in SW 2.5 mph 4.0 mph 54 % 0.00 in
17:15 83.2 °F 64.3 °F 29.92 in WSW 1.7 mph 9.2 mph 53 % 0.00 in
17:20 83.2 °F 64.3 °F 29.92 in SSW 2.7 mph 4.6 mph 53 % 0.00 in
17:25 83.1 °F 64.2 °F 29.92 in WSW 2.2 mph 10.4 mph 53 % 0.00 in
17:30 82.8 °F 63.9 °F 29.93 in SW 5.0 mph 7.0 mph 53 % 0.00 in
17:35 82.5 °F 63.6 °F 29.93 in WSW 2.7 mph 4.6 mph 53 % 0.00 in
17:40 82.3 °F 64.5 °F 29.93 in West 2.4 mph 4.6 mph 55 % 0.00 in
17:45 82.2 °F 63.9 °F 29.93 in WNW 3.6 mph 8.1 mph 54 % 0.00 in
17:50 82.1 °F 63.8 °F 29.92 in WSW 3.6 mph 9.2 mph 54 % 0.00 in
17:55 81.9 °F 62.5 °F 29.92 in NW 3.7 mph 6.0 mph 52 % 0.00 in
18:01 81.6 °F 62.3 °F 29.91 in WNW 4.3 mph 7.0 mph 52 % 0.00 in
18:06 81.3 °F 62.0 °F 29.91 in West 3.0 mph 7.0 mph 52 % 0.00 in
18:11 81.0 °F 62.3 °F 29.91 in WNW 2.9 mph 5.8 mph 53 % 0.00 in
18:16 80.5 °F 61.8 °F 29.91 in West 5.5 mph 9.2 mph 53 % 0.00 in
18:21 80.2 °F 61.5 °F 29.91 in West 6.0 mph 12.0 mph 53 % 0.00 in
18:26 80.0 °F 61.8 °F 29.92 in WNW 5.0 mph 12.0 mph 54 % 0.00 in
18:31 79.7 °F 61.0 °F 29.92 in WNW 2.0 mph 9.0 mph 53 % 0.00 in
18:36 79.3 °F 60.7 °F 29.92 in WNW 3.6 mph 10.4 mph 53 % 0.00 in
18:41 78.9 °F 60.9 °F 29.92 in WNW 5.0 mph 12.0 mph 54 % 0.00 in
18:46 78.6 °F 61.1 °F 29.91 in WNW 3.0 mph 12.0 mph 55 % 0.00 in
18:51 78.4 °F 60.9 °F 29.91 in WNW 3.0 mph 10.0 mph 55 % 0.00 in
18:56 78.0 °F 61.1 °F 29.91 in WNW 3.0 mph 12.0 mph 56 % 0.00 in
19:01 77.8 °F 61.3 °F 29.92 in WNW 4.0 mph 12.0 mph 57 % 0.00 in
19:06 77.6 °F 61.2 °F 29.92 in West 4.6 mph 8.1 mph 57 % 0.00 in
19:11 77.4 °F 61.0 °F 29.92 in NW 5.1 mph 11.5 mph 57 % 0.00 in
19:16 77.1 °F 61.2 °F 29.93 in NNW 4.7 mph 9.2 mph 58 % 0.00 in
19:21 76.9 °F 61.0 °F 29.93 in West 5.8 mph 8.1 mph 58 % 0.00 in
19:26 76.7 °F 60.8 °F 29.93 in WNW 2.4 mph 4.6 mph 58 % 0.00 in
19:31 76.5 °F 61.1 °F 29.93 in West 3.2 mph 4.6 mph 59 % 0.00 in
19:36 76.3 °F 60.9 °F 29.93 in West 3.3 mph 4.6 mph 59 % 0.00 in
19:41 76.2 °F 61.3 °F 29.94 in NW 3.5 mph 6.9 mph 60 % 0.00 in
19:46 76.1 °F 61.2 °F 29.94 in West 2.4 mph 7.0 mph 60 % 0.00 in
19:51 76.0 °F 61.1 °F 29.95 in WNW 0.8 mph 3.5 mph 60 % 0.00 in
19:57 75.8 °F 60.9 °F 29.95 in WSW 3.7 mph 5.8 mph 60 % 0.00 in
20:02 75.7 °F 61.3 °F 29.96 in Calm   3.5 mph 61 % 0.00 in
20:07 75.5 °F 61.1 °F 29.95 in West 0.3 mph 3.5 mph 61 % 0.00 in
20:12 75.4 °F 61.0 °F 29.96 in West 1.7 mph 6.9 mph 61 % 0.00 in
20:17 75.2 °F 60.8 °F 29.96 in WNW 1.1 mph 3.5 mph 61 % 0.00 in
20:22 75.1 °F 60.7 °F 29.97 in West 4.8 mph 9.2 mph 61 % 0.00 in
20:27 75.1 °F 60.7 °F 29.98 in West 2.0 mph 4.0 mph 61 % 0.00 in
20:32 75.0 °F 60.6 °F 29.98 in WNW 2.2 mph 4.0 mph 61 % 0.00 in
20:37 74.9 °F 61.0 °F 29.98 in WNW 4.4 mph 8.1 mph 62 % 0.00 in
20:42 74.8 °F 60.9 °F 29.98 in WNW 4.0 mph 8.1 mph 62 % 0.00 in
20:47 74.7 °F 60.4 °F 29.99 in WSW 3.8 mph 5.8 mph 61 % 0.00 in
20:52 74.6 °F 60.3 °F 29.99 in West 3.0 mph 4.6 mph 61 % 0.00 in
20:58 74.5 °F 60.2 °F 30.00 in WNW 4.6 mph 9.0 mph 61 % 0.00 in
21:03 74.4 °F 60.1 °F 30.00 in NW 4.6 mph 8.1 mph 61 % 0.00 in
21:08 74.2 °F 59.9 °F 30.00 in WNW 3.8 mph 9.2 mph 61 % 0.00 in
21:13 74.0 °F 60.2 °F 30.01 in NNW 0.1 mph 1.2 mph 62 % 0.00 in
21:18 73.8 °F 60.0 °F 30.02 in WNW 1.5 mph 3.5 mph 62 % 0.00 in
21:23 73.3 °F 59.0 °F 30.02 in West 5.2 mph 12.7 mph 61 % 0.00 in
21:28 72.7 °F 58.9 °F 30.02 in WNW 5.6 mph 8.1 mph 62 % 0.00 in
21:33 72.2 °F 58.0 °F 30.02 in West 5.5 mph 11.5 mph 61 % 0.00 in
21:38 71.8 °F 58.1 °F 30.03 in WNW 2.5 mph 6.9 mph 62 % 0.00 in
21:43 71.2 °F 57.5 °F 30.04 in North 2.7 mph 4.6 mph 62 % 0.00 in
21:49 70.5 °F 57.3 °F 30.04 in NNW 2.6 mph 11.5 mph 63 % 0.00 in
21:54 69.8 °F 57.1 °F 30.04 in NW 2.0 mph 7.0 mph 64 % 0.00 in
21:59 69.3 °F 57.0 °F 30.05 in NW 3.7 mph 6.9 mph 65 % 0.00 in
22:04 68.7 °F 56.9 °F 30.05 in NW 5.5 mph 11.5 mph 66 % 0.00 in
22:09 68.3 °F 56.5 °F 30.05 in West 5.6 mph 9.2 mph 66 % 0.00 in
22:14 68.0 °F 56.6 °F 30.05 in WNW 5.7 mph 12.0 mph 67 % 0.00 in
22:19 67.9 °F 56.5 °F 30.05 in WNW 5.6 mph 12.7 mph 67 % 0.00 in
22:24 67.8 °F 56.4 °F 30.05 in WNW 3.0 mph 4.0 mph 67 % 0.00 in
22:29 67.8 °F 56.4 °F 30.05 in WNW 2.9 mph 9.2 mph 67 % 0.00 in
22:31 67.8 °F 56.4 °F 30.05 in SSW 4.7 mph 6.9 mph 67 % 0.00 in
22:36 67.8 °F 56.9 °F 30.05 in West 3.7 mph 8.0 mph 68 % 0.00 in
22:41 67.7 °F 56.3 °F 30.05 in West 3.1 mph 6.9 mph 67 % 0.00 in
22:46 67.7 °F 56.8 °F 30.05 in WNW 0.8 mph 4.0 mph 68 % 0.00 in
22:51 67.6 °F 56.7 °F 30.06 in West 3.0 mph 5.8 mph 68 % 0.00 in
22:56 67.6 °F 56.7 °F 30.05 in West 0.1 mph 4.6 mph 68 % 0.00 in
23:02 67.6 °F 56.7 °F 30.05 in WNW 0.9 mph 3.5 mph 68 % 0.00 in
23:07 67.6 °F 56.7 °F 30.05 in West 3.4 mph 8.1 mph 68 % 0.00 in
23:12 67.6 °F 57.1 °F 30.05 in West 3.2 mph 5.8 mph 69 % 0.00 in
23:17 67.5 °F 57.0 °F 30.06 in West 1.0 mph 5.0 mph 69 % 0.00 in
23:22 67.5 °F 56.6 °F 30.06 in West 3.0 mph 5.8 mph 68 % 0.00 in
23:27 67.5 °F 56.6 °F 30.05 in WNW 3.9 mph 6.9 mph 68 % 0.00 in
23:28 67.5 °F 56.6 °F 30.06 in NW 3.7 mph 8.1 mph 68 % 0.00 in
23:33 67.4 °F 56.9 °F 30.05 in WNW 3.9 mph 8.0 mph 69 % 0.00 in
23:38 67.4 °F 56.9 °F 30.06 in WNW 2.4 mph 4.6 mph 69 % 0.00 in
23:43 67.4 °F 56.9 °F 30.06 in WNW 2.2 mph 4.0 mph 69 % 0.00 in
23:48 67.3 °F 56.8 °F 30.06 in WNW 2.9 mph 6.9 mph 69 % 0.00 in
23:53 67.2 °F 56.7 °F 30.06 in West 2.5 mph 4.6 mph 69 % 0.00 in
23:59 67.2 °F 56.7 °F 30.07 in WNW 4.3 mph 8.1 mph 69 % 0.00 in
Crab Meadow Weather
Compliments of Weather Underground - 3 mb

Script developed by  Jim McMurry - jmcmurry@mwt.net Adapted for the template by  Wim van der Kuil - Leuven-Template.eu

Weather Terms: Outlook - A hazardous weather outlook is issued daily to indicate that a hazardous weather or hydrologic event may occur in the next several days. The outlook will include information about potential severe thunderstorms , heavy rain or flooding, winter weather, extremes of heat or cold, etc., that may develop over the next 7 days with an emphasis on the first 24 hours of the forecast. It is intended to provide information to those who need considerable lead time to prepare for the event.